Time;durP1;ratioP1;P1;durP2;ratioP2;P2;SDS_P1;SDS_P2;PMS_P1;PMS_P2;Temp;Humidity;BMP_temperature;BMP_pressure;BME280_temperature;BME280_humidity;BME280_pressure;Samples;Min_cycle;Max_cycle;Signal;HPM_P1;HPM_P2
2021/12/18 00:01:38;;;;;;;10.07;5.33;;;;;;;2.94;84.98;102528.53;1747240;82;20997;-74
2021/12/18 00:04:05;;;;;;;12.13;5.70;;;;;;;2.97;84.94;102535.52;1753058;81;21334;-74
2021/12/18 00:06:32;;;;;;;14.23;6.10;;;;;;;2.97;84.92;102535.09;1755013;81;21028;-73
2021/12/18 00:09:00;;;;;;;12.93;5.93;;;;;;;2.98;84.93;102532.95;1754741;81;21952;-74
2021/12/18 00:11:28;;;;;;;15.30;6.43;;;;;;;3.02;85.08;102540.38;1754810;81;21048;-74
2021/12/18 00:13:55;;;;;;;13.87;6.27;;;;;;;3.01;85.06;102539.94;1754979;81;21059;-73
2021/12/18 00:16:23;;;;;;;16.23;7.27;;;;;;;3.02;85.03;102545.17;1754931;81;20993;-74
2021/12/18 00:18:52;;;;;;;13.70;6.83;;;;;;;2.98;84.82;102554.97;1755077;81;21083;-74
2021/12/18 00:21:20;;;;;;;18.73;7.20;;;;;;;2.94;84.87;102563.89;1755091;81;21033;-74
2021/12/18 00:23:48;;;;;;;13.87;6.63;;;;;;;2.93;84.82;102556.55;1755317;81;21000;-74
2021/12/18 00:26:15;;;;;;;14.33;6.60;;;;;;;2.94;84.91;102547.05;1755039;81;21008;-74
2021/12/18 00:28:42;;;;;;;14.17;5.83;;;;;;;2.94;84.81;102557.03;1755272;81;20972;-74
2021/12/18 00:31:10;;;;;;;14.43;6.17;;;;;;;2.92;84.70;102559.11;1755024;81;21063;-74
2021/12/18 00:33:37;;;;;;;12.27;5.87;;;;;;;2.92;84.83;102553.51;1755341;81;21122;-73
2021/12/18 00:36:04;;;;;;;13.77;6.30;;;;;;;2.93;84.78;102559.13;1755027;81;20985;-74
2021/12/18 00:38:31;;;;;;;15.33;6.40;;;;;;;2.92;84.71;102559.11;1755336;81;21023;-74
2021/12/18 00:44:00;;;;;;;14.17;7.57;;;;;;;2.90;85.11;102562.52;1755319;81;21035;-74
2021/12/18 00:46:06;;;;;;;;;;;;;;;2.92;85.12;102565.16;1754114;81;22164;-74
2021/12/18 00:48:33;;;;;;;13.40;7.90;;;;;;;2.89;84.98;102565.08;1755371;81;20163;-74
2021/12/18 00:51:00;;;;;;;16.97;8.93;;;;;;;2.85;85.08;102561.49;1754993;81;21024;-74
2021/12/18 00:53:27;;;;;;;14.07;8.70;;;;;;;2.84;85.10;102566.65;1755378;81;21038;-74
2021/12/18 00:55:56;;;;;;;12.80;7.00;;;;;;;2.83;84.97;102569.66;1754941;81;21020;-74
2021/12/18 00:58:23;;;;;;;14.67;6.77;;;;;;;2.87;85.40;102564.14;1755300;81;21422;-74
2021/12/18 01:00:52;;;;;;;11.57;6.03;;;;;;;2.90;85.19;102572.87;1755053;81;21019;-74
2021/12/18 01:03:21;;;;;;;15.17;6.30;;;;;;;2.90;85.09;102566.40;1755037;81;20988;-74
2021/12/18 01:05:48;;;;;;;12.93;5.73;;;;;;;2.92;84.96;102569.47;1755002;81;21295;-74
2021/12/18 01:08:16;;;;;;;14.33;6.30;;;;;;;2.92;85.00;102569.47;1754952;81;21019;-74
2021/12/18 01:11:16;;;;;;;14.67;5.30;;;;;;;2.95;85.13;102561.78;1755098;81;21187;-74
2021/12/18 01:13:29;;;;;;;13.83;6.17;;;;;;;2.94;85.07;102568.69;1751568;81;21045;-73
2021/12/18 01:15:56;;;;;;;14.10;6.67;;;;;;;3.00;85.14;102570.58;1754482;81;20977;-74
2021/12/18 01:23:52;;;;;;;12.43;6.80;;;;;;;2.98;85.19;102573.11;1755378;81;21110;-74
2021/12/18 01:26:19;;;;;;;14.87;7.83;;;;;;;3.02;85.50;102567.20;1754995;81;21470;-74
2021/12/18 01:28:47;;;;;;;13.33;6.60;;;;;;;3.04;85.43;102563.34;1755467;81;21510;-74
2021/12/18 01:31:13;;;;;;;13.07;6.50;;;;;;;3.06;85.26;102570.31;1755102;81;21493;-74
2021/12/18 01:33:41;;;;;;;12.20;6.33;;;;;;;3.06;85.18;102556.49;1755126;81;21410;-74
2021/12/18 01:36:08;;;;;;;14.00;6.60;;;;;;;3.07;85.17;102564.72;1755277;81;21071;-74
2021/12/18 01:38:35;;;;;;;11.97;6.43;;;;;;;3.09;85.11;102573.00;1755329;81;20944;-74
2021/12/18 01:41:03;;;;;;;12.40;5.40;;;;;;;3.07;84.86;102575.95;1755097;81;21012;-74
2021/12/18 01:51:19;;;;;;;11.80;5.80;;;;;;;3.07;84.84;102559.11;1755135;81;20988;-74
2021/12/18 01:53:46;;;;;;;12.53;6.53;;;;;;;3.05;85.02;102565.11;1754671;81;21019;-74
2021/12/18 01:56:14;;;;;;;14.50;7.33;;;;;;;3.06;85.04;102563.84;1755213;81;21005;-74
2021/12/18 01:58:44;;;;;;;14.00;6.73;;;;;;;3.05;84.99;102566.41;1755130;81;21694;-74
2021/12/18 02:01:13;;;;;;;13.53;6.33;;;;;;;3.02;84.91;102564.61;1755109;81;22005;-74
2021/12/18 02:03:40;;;;;;;13.60;5.93;;;;;;;3.01;85.08;102555.05;1747546;81;21521;-74
2021/12/18 02:06:07;;;;;;;10.93;6.10;;;;;;;3.09;85.33;102548.80;1733320;82;21055;-75
2021/12/18 02:08:36;;;;;;;12.07;5.30;;;;;;;3.12;85.21;102551.05;1733296;82;20985;-74
2021/12/18 02:11:15;;;;;;;15.70;5.83;;;;;;;3.17;85.09;102548.60;1733166;82;21335;-74
2021/12/18 02:14:08;;;;;;;12.37;5.37;;;;;;;3.20;85.07;102538.31;1732759;82;21149;-74
2021/12/18 02:22:02;;;;;;;12.10;6.77;;;;;;;3.21;84.82;102553.44;1733324;82;21497;-74
2021/12/18 02:24:32;;;;;;;15.23;7.30;;;;;;;3.18;84.77;102550.77;1733291;82;21367;-74
2021/12/18 02:26:59;;;;;;;15.10;7.20;;;;;;;3.15;84.86;102555.45;1733193;82;21909;-74
2021/12/18 02:29:30;;;;;;;12.07;7.00;;;;;;;3.14;84.91;102549.81;1733158;82;21028;-75
2021/12/18 02:31:55;;;;;;;18.03;7.73;;;;;;;3.16;85.26;102552.04;1733476;82;21007;-74
2021/12/18 02:34:28;;;;;;;12.20;5.63;;;;;;;3.18;84.85;102549.05;1733236;82;21004;-74
2021/12/18 02:37:05;;;;;;;16.17;6.07;;;;;;;3.15;84.70;102549.39;1733024;82;21063;-74
2021/12/18 02:42:13;;;;;;;14.00;5.63;;;;;;;3.22;84.91;102540.97;1733536;82;20988;-74
2021/12/18 02:44:39;;;;;;;9.97;5.20;;;;;;;3.24;85.03;102546.66;1733082;82;21035;-74
2021/12/18 02:47:08;;;;;;;11.33;5.30;;;;;;;3.32;85.09;102546.84;1760721;81;21262;-74
2021/12/18 02:49:35;;;;;;;14.33;5.93;;;;;;;3.35;85.00;102542.64;1763432;81;22020;-75
2021/12/18 02:52:03;;;;;;;11.37;6.83;;;;;;;3.35;84.95;102543.03;1763831;81;21057;-75
2021/12/18 02:54:30;;;;;;;16.17;7.63;;;;;;;3.35;84.93;102545.23;1763513;81;21054;-75
2021/12/18 02:56:57;;;;;;;11.47;7.03;;;;;;;3.34;85.01;102538.27;1763909;81;21289;-75
2021/12/18 02:59:25;;;;;;;17.17;7.70;;;;;;;3.38;85.23;102546.13;1763630;81;21479;-75
2021/12/18 03:01:52;;;;;;;15.67;7.60;;;;;;;3.38;85.06;102540.94;1763462;81;21027;-75
2021/12/18 03:04:28;;;;;;;13.80;7.20;;;;;;;3.34;84.88;102543.45;1763558;81;21116;-75
2021/12/18 03:06:56;;;;;;;13.60;7.20;;;;;;;3.31;84.78;102536.02;1762717;81;21054;-75
2021/12/18 03:19:07;;;;;;;13.10;6.20;;;;;;;3.31;84.84;102536.89;1763667;81;21062;-74
2021/12/18 03:25:29;;;;;;;15.73;6.50;;;;;;;3.40;84.82;102526.31;1763665;81;21024;-75
2021/12/18 03:27:59;;;;;;;16.03;6.47;;;;;;;3.38;84.82;102527.98;1763724;81;21536;-75
2021/12/18 03:30:25;;;;;;;15.90;6.35;;;;;;;3.37;84.93;102527.11;1763590;81;21142;-74
2021/12/18 03:32:52;;;;;;;13.17;6.60;;;;;;;3.36;84.95;102517.59;1763748;81;21076;-74
2021/12/18 03:35:20;;;;;;;13.13;6.17;;;;;;;3.34;84.82;102521.84;1763628;81;21016;-74
2021/12/18 03:37:48;;;;;;;17.60;6.67;;;;;;;3.28;84.77;102517.38;1763796;81;21070;-75
2021/12/18 03:40:20;;;;;;;12.73;6.00;;;;;;;3.28;84.69;102515.20;1763597;81;21561;-75
2021/12/18 03:42:48;;;;;;;11.17;5.53;;;;;;;3.25;84.55;102513.41;1763703;81;21107;-75
2021/12/18 03:45:17;;;;;;;16.37;5.63;;;;;;;3.22;84.49;102515.92;1763514;81;21008;-74
2021/12/18 03:47:46;;;;;;;12.33;5.23;;;;;;;3.22;84.69;102517.22;1763797;81;21008;-75
2021/12/18 03:50:13;;;;;;;13.93;5.17;;;;;;;3.23;84.68;102516.37;1763625;81;20996;-74
2021/12/18 03:52:40;;;;;;;11.40;5.60;;;;;;;3.24;84.67;102515.55;1763906;81;21584;-75
2021/12/18 03:55:07;;;;;;;9.07;5.57;;;;;;;3.26;84.86;102512.98;1763705;81;22179;-75
2021/12/18 03:57:35;;;;;;;11.90;6.00;;;;;;;3.22;84.86;102512.03;1763883;81;21055;-75
2021/12/18 04:00:07;;;;;;;10.83;6.23;;;;;;;3.24;84.99;102515.95;1763694;81;21481;-75
2021/12/18 04:02:37;;;;;;;9.97;6.43;;;;;;;3.25;85.05;102516.00;1782216;80;22050;-75
2021/12/18 04:05:05;;;;;;;13.17;6.33;;;;;;;3.28;85.08;102516.08;1782499;80;21039;-75
2021/12/18 04:07:39;;;;;;;16.00;6.67;;;;;;;3.28;85.05;102517.80;1755125;81;21474;-75
2021/12/18 04:10:00;;;;;;;12.07;5.63;;;;;;;3.30;84.96;102515.71;1781410;80;21028;-75
2021/12/18 04:12:28;;;;;;;13.27;5.60;;;;;;;3.31;84.93;102519.17;1782461;80;21021;-74
2021/12/18 04:14:55;;;;;;;12.27;5.60;;;;;;;3.32;84.84;102511.42;1782695;80;21004;-75
2021/12/18 04:17:22;;;;;;;12.13;6.40;;;;;;;3.32;84.71;102516.61;1782935;80;21007;-75
2021/12/18 04:19:49;;;;;;;15.83;5.93;;;;;;;3.30;84.77;102510.53;1782663;80;21038;-74
2021/12/18 04:22:16;;;;;;;11.00;5.23;;;;;;;3.30;84.74;102518.73;1782847;80;21055;-74
2021/12/18 04:24:43;;;;;;;13.47;5.23;;;;;;;3.31;84.80;102518.75;1751310;80;21043;-75
2021/12/18 04:27:10;;;;;;;11.97;5.90;;;;;;;3.29;84.86;102509.17;1736188;82;21031;-75
2021/12/18 04:29:37;;;;;;;14.97;6.40;;;;;;;3.28;84.96;102505.72;1736051;82;20988;-75
2021/12/18 04:32:04;;;;;;;14.23;6.73;;;;;;;3.25;84.95;102504.77;1736135;82;21989;-75
2021/12/18 04:34:31;;;;;;;12.33;6.50;;;;;;;3.24;85.07;102502.59;1735807;82;21557;-74
2021/12/18 04:36:58;;;;;;;14.43;6.67;;;;;;;3.23;85.19;102504.70;1736094;82;21007;-75
2021/12/18 04:39:25;;;;;;;13.87;6.37;;;;;;;3.24;84.98;102504.28;1735976;82;20951;-75
2021/12/18 04:41:57;;;;;;;15.60;7.00;;;;;;;3.23;84.90;102504.70;1736205;82;21031;-74
2021/12/18 04:44:20;;;;;;;13.70;6.93;;;;;;;3.23;84.79;102506.42;1735363;82;21148;-75
2021/12/18 04:46:48;;;;;;;12.70;6.40;;;;;;;3.22;84.83;102503.39;1736171;82;21097;-74
2021/12/18 04:49:14;;;;;;;8.97;5.33;;;;;;;3.22;84.84;102500.38;1735936;82;21052;-74
2021/12/18 04:51:41;;;;;;;12.57;5.93;;;;;;;3.24;85.11;102497.41;1736317;82;21007;-75
2021/12/18 04:54:08;;;;;;;13.47;6.30;;;;;;;3.28;85.11;102501.83;1736109;82;21494;-75
2021/12/18 04:56:35;;;;;;;11.77;5.70;;;;;;;3.29;84.99;102491.03;1736382;82;22059;-75
2021/12/18 04:59:04;;;;;;;10.70;6.07;;;;;;;3.27;85.00;102498.79;1735958;82;20993;-75
2021/12/18 05:01:36;;;;;;;10.57;6.57;;;;;;;3.24;84.98;102493.92;1736133;82;21011;-75
2021/12/18 05:04:03;;;;;;;11.93;6.08;;;;;;;3.23;84.97;102497.36;1735504;82;21076;-75
2021/12/18 05:06:31;;;;;;;13.37;7.50;;;;;;;3.20;84.88;102498.58;1718644;83;21483;-75
2021/12/18 05:08:58;;;;;;;11.40;6.57;;;;;;;3.18;84.91;102491.17;1732982;82;21083;-75
2021/12/18 05:11:25;;;;;;;10.07;6.30;;;;;;;3.18;84.91;102491.17;1718463;83;21032;-75
2021/12/18 05:13:52;;;;;;;10.83;5.60;;;;;;;3.19;84.85;102486.43;1733028;82;21458;-75
2021/12/18 05:16:19;;;;;;;11.00;6.07;;;;;;;3.20;84.83;102489.50;1718611;83;21028;-75
2021/12/18 05:18:46;;;;;;;10.10;5.63;;;;;;;3.21;84.88;102483.05;1732992;82;21020;-75
2021/12/18 05:21:13;;;;;;;11.07;5.77;;;;;;;3.23;84.89;102476.63;1718481;83;21225;-74
2021/12/18 05:23:40;;;;;;;6.83;4.87;;;;;;;3.28;84.80;102480.22;1732917;82;21449;-75
2021/12/18 05:26:07;;;;;;;10.70;5.63;;;;;;;3.27;84.79;102468.08;1718598;83;21075;-75
2021/12/18 05:28:34;;;;;;;11.33;5.87;;;;;;;3.26;84.86;102460.73;1732992;82;21015;-74
2021/12/18 05:31:01;;;;;;;10.13;5.17;;;;;;;3.24;84.80;102458.93;1718527;83;21019;-75
2021/12/18 05:33:28;;;;;;;10.83;5.07;;;;;;;3.22;84.74;102459.33;1733031;82;21301;-75
2021/12/18 05:35:55;;;;;;;12.03;5.50;;;;;;;3.20;84.71;102455.39;1718402;83;21008;-75
2021/12/18 05:38:23;;;;;;;9.27;4.33;;;;;;;3.19;84.55;102454.04;1733132;82;21000;-75
2021/12/18 05:40:50;;;;;;;10.03;4.30;;;;;;;3.18;84.56;102460.94;1718583;83;20984;-75
2021/12/18 05:43:17;;;;;;;10.30;4.47;;;;;;;3.19;84.58;102461.42;1733043;82;21023;-75
2021/12/18 05:45:46;;;;;;;11.63;5.17;;;;;;;3.19;84.50;102457.53;1718721;83;21099;-75
2021/12/18 05:48:13;;;;;;;9.20;5.20;;;;;;;3.17;84.49;102457.03;1733076;82;20920;-75
2021/12/18 05:50:44;;;;;;;9.43;4.93;;;;;;;3.14;84.55;102460.42;1718829;83;21079;-75
2021/12/18 05:53:08;;;;;;;11.00;5.63;;;;;;;3.11;84.62;102457.75;1732715;82;21282;-75
2021/12/18 05:55:35;;;;;;;9.33;5.17;;;;;;;3.10;84.67;102461.16;1718716;83;21364;-75
2021/12/18 05:58:02;;;;;;;8.43;4.57;;;;;;;3.09;84.57;102460.71;1733094;82;21129;-75
2021/12/18 06:00:29;;;;;;;5.80;3.30;;;;;;;3.08;84.43;102457.67;1718724;83;21008;-75
2021/12/18 06:02:56;;;;;;;8.40;3.60;;;;;;;3.08;84.32;102465.44;1733075;82;21050;-74
2021/12/18 06:05:23;;;;;;;8.77;3.00;;;;;;;3.04;84.24;102467.05;1717583;83;21020;-75
2021/12/18 06:10:28;;;;;;;10.58;3.75;;;;;;;3.03;84.33;102467.90;1736198;82;22031;-75
2021/12/18 06:12:57;;;;;;;8.73;3.40;;;;;;;3.01;84.28;102469.98;1735798;82;21027;-74
2021/12/18 06:15:24;;;;;;;13.53;3.50;;;;;;;2.96;84.36;102458.19;1736331;82;21059;-74
2021/12/18 06:17:53;;;;;;;7.27;3.50;;;;;;;2.95;84.45;102456.45;1736028;82;21516;-74
2021/12/18 06:20:20;;;;;;;6.83;3.57;;;;;;;2.96;84.40;102456.03;1736112;82;21381;-74
2021/12/18 06:22:47;;;;;;;9.60;3.30;;;;;;;2.98;84.35;102450.48;1735879;82;21947;-74
2021/12/18 06:25:15;;;;;;;12.83;3.60;;;;;;;2.96;84.33;102454.31;1736081;82;21035;-74
2021/12/18 06:27:42;;;;;;;8.50;3.40;;;;;;;2.98;84.34;102450.48;1735826;82;21027;-74
2021/12/18 06:30:10;;;;;;;6.73;3.37;;;;;;;2.98;84.24;102451.34;1736291;82;20992;-74
2021/12/18 06:32:39;;;;;;;10.47;4.40;;;;;;;2.97;84.28;102453.92;1735896;82;21035;-73
2021/12/18 06:35:08;;;;;;;10.17;4.27;;;;;;;2.96;84.37;102454.73;1736094;82;21954;-74
2021/12/18 06:37:35;;;;;;;8.60;4.27;;;;;;;2.93;84.35;102452.06;1735694;82;21019;-73
2021/12/18 06:40:06;;;;;;;8.23;3.90;;;;;;;2.92;84.44;102448.59;1735839;82;21036;-74
2021/12/18 06:42:33;;;;;;;9.40;4.05;;;;;;;2.92;84.34;102442.12;1736049;82;21023;-74
2021/12/18 06:45:00;;;;;;;8.83;3.90;;;;;;;2.92;84.22;102439.53;1736101;82;21016;-74
2021/12/18 06:47:27;;;;;;;8.20;4.00;;;;;;;2.92;84.27;102442.12;1735928;82;21561;-74
2021/12/18 06:49:54;;;;;;;7.73;4.03;;;;;;;2.93;84.30;102444.29;1736016;82;20924;-74
2021/12/18 06:52:21;;;;;;;8.47;3.77;;;;;;;2.94;84.34;102449.92;1735654;82;22050;-74
2021/12/18 06:54:48;;;;;;;10.40;4.70;;;;;;;2.97;84.45;102455.21;1736120;82;21031;-74
2021/12/18 06:57:15;;;;;;;9.30;5.00;;;;;;;2.95;84.38;102453.86;1735965;82;21272;-74
2021/12/18 06:59:42;;;;;;;10.30;5.20;;;;;;;2.96;84.54;102451.72;1736034;82;21107;-74
2021/12/18 07:02:10;;;;;;;10.87;5.33;;;;;;;2.94;84.40;102453.80;1735836;82;21071;-74
2021/12/18 07:04:37;;;;;;;8.10;4.77;;;;;;;2.90;84.47;102452.42;1735980;82;21047;-74
2021/12/18 07:07:04;;;;;;;11.93;5.60;;;;;;;2.93;84.60;102446.45;1707254;84;21038;-74
2021/12/18 07:09:31;;;;;;;8.93;5.30;;;;;;;2.97;84.45;102452.20;1765400;80;21219;-73
2021/12/18 07:11:58;;;;;;;9.17;4.70;;;;;;;2.96;84.37;102448.25;1765509;81;21462;-74
2021/12/18 07:14:27;;;;;;;15.23;5.57;;;;;;;2.97;84.43;102440.54;1765183;80;21009;-73
2021/12/18 07:16:54;;;;;;;7.73;5.30;;;;;;;3.02;84.50;102431.19;1765300;80;21521;-73
2021/12/18 07:19:21;;;;;;;12.20;5.77;;;;;;;3.05;84.53;102428.67;1736860;82;21019;-74
2021/12/18 07:21:48;;;;;;;11.07;5.40;;;;;;;3.06;84.48;102429.54;1736682;82;21377;-74
2021/12/18 07:24:15;;;;;;;10.30;5.47;;;;;;;3.06;84.58;102430.84;1765538;80;21051;-73
2021/12/18 07:26:42;;;;;;;10.03;6.83;;;;;;;3.06;84.59;102434.72;1765089;81;21074;-73
2021/12/18 07:29:09;;;;;;;10.83;6.10;;;;;;;3.06;84.66;102427.82;1765561;80;21012;-73
2021/12/18 07:31:36;;;;;;;13.83;6.13;;;;;;;3.07;84.69;102430.86;1736660;82;21000;-73
2021/12/18 07:34:03;;;;;;;9.60;5.20;;;;;;;3.11;84.72;102434.43;1737126;82;21317;-74
2021/12/18 07:36:31;;;;;;;10.80;5.30;;;;;;;3.14;84.58;102438.39;1736750;82;21232;-74
2021/12/18 07:38:58;;;;;;;10.67;6.17;;;;;;;3.18;84.60;102440.64;1737037;82;21024;-74
2021/12/18 07:41:25;;;;;;;8.67;4.97;;;;;;;3.20;84.54;102444.16;1736742;82;21545;-73
2021/12/18 07:43:52;;;;;;;9.30;5.30;;;;;;;3.22;84.55;102434.71;1737129;82;21490;-74
2021/12/18 07:46:19;;;;;;;44.70;20.80;;;;;;;3.23;84.54;102437.75;1736770;82;21027;-74
2021/12/18 07:48:46;;;;;;;18.80;10.77;;;;;;;3.22;84.61;102439.47;1736761;82;21128;-75
2021/12/18 07:51:13;;;;;;;11.70;7.20;;;;;;;3.28;84.87;102441.34;1736538;82;21035;-76
2021/12/18 07:53:40;;;;;;;14.60;7.20;;;;;;;3.30;84.80;102443.56;1737168;82;21019;-78
2021/12/18 07:56:09;;;;;;;16.80;8.87;;;;;;;3.31;84.63;102435.81;1736831;82;21015;-74
2021/12/18 07:58:36;;;;;;;12.30;6.90;;;;;;;3.34;84.53;102433.30;1780237;80;21029;-75
2021/12/18 08:01:04;;;;;;;10.93;6.67;;;;;;;3.36;84.45;102437.23;1765984;81;21138;-75
2021/12/18 08:03:32;;;;;;;17.60;8.53;;;;;;;3.37;84.45;102431.62;1762133;81;21007;-75
2021/12/18 08:05:59;;;;;;;16.40;7.53;;;;;;;3.41;84.69;102430.84;1735142;82;21019;-74
2021/12/18 08:08:26;;;;;;;11.33;6.27;;;;;;;3.47;84.73;102430.59;1733269;82;21071;-75
2021/12/18 08:10:54;;;;;;;10.03;7.03;;;;;;;3.48;84.54;102429.75;1733422;82;21150;-73
2021/12/18 08:13:21;;;;;;;16.00;7.73;;;;;;;3.48;84.64;102427.58;1733568;82;21955;-73
2021/12/18 08:15:48;;;;;;;17.57;9.47;;;;;;;3.51;84.70;102431.11;1704301;82;21035;-74
2021/12/18 08:18:15;;;;;;;13.83;8.10;;;;;;;3.53;84.73;102424.27;1733604;82;21066;-74
2021/12/18 08:20:43;;;;;;;12.03;7.33;;;;;;;3.58;84.79;102428.27;1733342;82;21038;-74
2021/12/18 08:23:10;;;;;;;27.67;12.70;;;;;;;3.63;84.69;102428.36;1733346;82;21497;-74
2021/12/18 08:25:38;;;;;;;15.13;7.57;;;;;;;3.64;84.50;102434.03;1734455;81;21124;-73
2021/12/18 08:28:06;;;;;;;15.93;8.20;;;;;;;3.66;84.48;102428.43;1735300;81;21540;-75
2021/12/18 08:30:36;;;;;;;17.53;8.67;;;;;;;3.69;84.52;102430.70;1763935;81;21063;-80
2021/12/18 08:33:04;;;;;;;18.10;10.82;;;;;;;3.72;84.51;102428.60;1763864;81;21027;-81
2021/12/18 08:35:32;;;;;;;12.27;7.20;;;;;;;3.76;84.58;102433.01;1764163;81;21015;-75
2021/12/18 08:38:02;;;;;;;15.90;7.97;;;;;;;3.79;84.46;102434.38;1782575;80;21200;-76
2021/12/18 08:40:30;;;;;;;19.37;8.17;;;;;;;3.77;84.48;102429.17;1750412;82;20977;-73
2021/12/18 08:42:57;;;;;;;16.53;9.57;;;;;;;3.75;84.48;102428.67;1755021;81;21513;-75
2021/12/18 08:45:25;;;;;;;14.93;9.07;;;;;;;3.75;84.57;102421.77;1756964;80;21019;-77
2021/12/18 08:47:52;;;;;;;14.13;7.90;;;;;;;3.77;84.70;102420.09;1720214;83;21030;-78
2021/12/18 08:50:20;;;;;;;14.27;7.97;;;;;;;3.81;84.67;102418.44;1720438;83;21164;-75
2021/12/18 08:52:50;;;;;;;19.83;7.83;;;;;;;3.85;84.48;102423.27;1751478;82;20990;-79
2021/12/18 08:55:18;;;;;;;25.07;12.17;;;;;;;3.86;84.48;102422.44;1725267;83;21016;-80
2021/12/18 08:57:46;;;;;;;14.20;8.07;;;;;;;3.91;84.59;102416.94;1754295;81;20999;-75
2021/12/18 09:00:17;;;;;;;14.00;8.20;;;;;;;3.93;84.47;102422.59;1720425;83;20997;-80
2021/12/18 09:02:48;;;;;;;15.55;9.15;;;;;;;3.97;84.54;102426.16;1725023;83;22179;-79
2021/12/18 09:05:16;;;;;;;14.40;8.23;;;;;;;3.99;84.63;102425.35;1754325;81;21015;-81
2021/12/18 09:07:44;;;;;;;19.80;9.47;;;;;;;4.01;84.67;102418.45;1782464;80;20984;-80
2021/12/18 09:10:14;;;;;;;13.47;8.67;;;;;;;4.00;84.58;102418.01;1783090;80;21003;-80
2021/12/18 09:12:43;;;;;;;17.83;8.70;;;;;;;4.00;84.54;102417.14;1783049;80;21027;-81
2021/12/18 09:15:11;;;;;;;13.17;8.00;;;;;;;4.03;84.54;102419.80;1783240;80;21117;-80
2021/12/18 09:17:39;;;;;;;12.83;7.40;;;;;;;4.03;84.37;102411.59;1782963;80;20965;-80
2021/12/18 09:20:08;;;;;;;15.07;7.90;;;;;;;4.05;84.39;102417.22;1783170;80;20956;-79
2021/12/18 09:22:35;;;;;;;12.70;8.10;;;;;;;4.07;84.37;102412.52;1783358;80;21636;-75
2021/12/18 09:25:05;;;;;;;13.10;7.30;;;;;;;4.10;84.37;102404.83;1783176;80;21622;-79
2021/12/18 09:27:35;;;;;;;12.15;7.80;;;;;;;4.12;84.51;102398.36;1783515;80;26627;-80
2021/12/18 09:30:06;;;;;;;14.70;7.75;;;;;;;4.14;84.48;102392.36;1783172;80;20992;-74
2021/12/18 09:32:36;;;;;;;13.30;7.87;;;;;;;4.15;84.47;102395.39;1783289;80;21000;-74
2021/12/18 09:35:04;;;;;;;13.47;8.13;;;;;;;4.15;84.43;102391.94;1783357;80;20966;-73
2021/12/18 09:37:31;;;;;;;12.00;7.80;;;;;;;4.13;84.32;102394.91;1783255;80;21529;-73
2021/12/18 09:39:58;;;;;;;12.07;7.30;;;;;;;4.13;84.41;102386.73;1783011;80;21490;-74
2021/12/18 09:42:25;;;;;;;12.93;7.50;;;;;;;4.19;84.41;102385.98;1783306;80;21332;-74
2021/12/18 09:44:52;;;;;;;10.27;6.80;;;;;;;4.19;84.30;102389.87;1783125;80;21028;-74
2021/12/18 09:47:20;;;;;;;11.37;6.77;;;;;;;4.22;84.31;102372.63;1783389;80;21012;-75
2021/12/18 09:49:48;;;;;;;10.07;6.30;;;;;;;4.25;84.27;102374.42;1783170;80;21274;-76
2021/12/18 09:52:15;;;;;;;12.53;7.50;;;;;;;4.22;84.11;102364.84;1783336;80;21974;-75
2021/12/18 09:54:42;;;;;;;11.23;7.23;;;;;;;4.24;84.27;102367.49;1773883;80;20900;-75
2021/12/18 09:57:10;;;;;;;11.03;6.67;;;;;;;4.24;84.27;102348.02;1782242;80;21071;-76
2021/12/18 09:59:37;;;;;;;12.03;6.53;;;;;;;4.27;84.32;102351.07;1783151;80;20996;-76
2021/12/18 10:02:06;;;;;;;11.07;6.77;;;;;;;4.27;84.16;102344.19;1782861;80;21012;-77
2021/12/18 10:04:37;;;;;;;9.70;6.40;;;;;;;4.23;84.04;102339.33;1776325;80;21214;-76
2021/12/18 10:07:26;;;;;;;9.65;6.50;;;;;;;4.24;84.08;102342.41;1779219;80;21008;-76
2021/12/18 10:09:58;;;;;;;9.83;6.25;;;;;;;4.28;84.29;102334.24;1728167;81;21078;-78
2021/12/18 10:12:28;;;;;;;10.33;5.77;;;;;;;4.33;84.25;102334.34;1748371;82;20992;-76
2021/12/18 10:15:00;;;;;;;10.17;6.20;;;;;;;4.35;84.22;102329.64;1731605;81;21074;-77
2021/12/18 10:17:39;;;;;;;9.83;5.70;;;;;;;4.32;84.22;102327.38;1723090;82;21207;-76
2021/12/18 10:20:23;;;;;;;8.38;5.65;;;;;;;4.30;84.30;102323.48;1729509;83;21000;-76
2021/12/18 10:23:04;;;;;;;6.97;5.07;;;;;;;4.30;84.37;102321.31;1729812;83;20984;-76
2021/12/18 10:25:42;;;;;;;7.00;4.40;;;;;;;4.32;84.26;102323.48;1729618;83;21015;-76
2021/12/18 10:28:18;;;;;;;12.37;6.57;;;;;;;4.32;84.28;102315.70;1729394;83;21050;-75
2021/12/18 10:30:51;;;;;;;9.50;5.20;;;;;;;4.31;84.19;102317.42;1729423;83;21132;-76
2021/12/18 10:33:20;;;;;;;10.90;5.40;;;;;;;4.30;84.19;102313.09;1741971;80;20972;-75
2021/12/18 10:35:51;;;;;;;6.90;3.90;;;;;;;4.34;84.37;102306.23;1747579;82;21031;-75
2021/12/18 10:38:49;;;;;;;5.83;3.80;;;;;;;4.36;84.33;102306.71;1747322;82;21030;-75
2021/12/18 10:41:28;;;;;;;9.27;5.40;;;;;;;4.33;84.35;102303.19;1746888;82;21055;-75
2021/12/18 10:44:08;;;;;;;6.93;4.43;;;;;;;4.32;84.52;102298.83;1698312;84;21301;-75
2021/12/18 10:46:39;;;;;;;8.67;4.57;;;;;;;4.30;84.51;102296.22;1729558;83;21011;-76
2021/12/18 10:49:11;;;;;;;5.60;3.50;;;;;;;4.31;84.59;102302.28;1747238;82;20995;-75
2021/12/18 10:51:40;;;;;;;4.67;3.20;;;;;;;4.33;84.54;102302.77;1729673;83;21492;-75
2021/12/18 10:54:26;;;;;;;5.08;3.62;;;;;;;4.33;84.53;102307.09;1747438;82;21015;-75
2021/12/18 10:56:52;;;;;;;3.93;3.20;;;;;;;4.33;84.62;102305.79;1745834;82;21928;-76
2021/12/18 10:59:24;;;;;;;4.75;3.37;;;;;;;4.36;84.74;102301.52;1729478;83;21553;-77
2021/12/18 11:02:02;;;;;;;5.07;3.67;;;;;;;4.37;84.70;102302.39;1747497;82;20984;-75
2021/12/18 11:04:33;;;;;;;6.50;4.40;;;;;;;4.34;84.82;102301.91;1697732;84;21000;-76
2021/12/18 11:07:17;;;;;;;6.40;4.27;;;;;;;4.36;85.01;102306.71;1750907;81;21076;-78
2021/12/18 11:15:13;;;;;;;5.10;2.97;;;;;;;4.38;84.82;102282.96;1795830;79;20996;-76
2021/12/18 11:17:41;;;;;;;4.37;3.20;;;;;;;4.41;84.91;102286.91;1813552;79;20977;-76
2021/12/18 11:20:11;;;;;;;6.00;3.63;;;;;;;4.44;85.00;102285.66;1813797;79;21008;-75
2021/12/18 11:22:41;;;;;;;3.65;2.92;;;;;;;4.49;85.08;102274.08;1813589;79;21168;-76
2021/12/18 11:25:11;;;;;;;3.47;2.75;;;;;;;4.54;85.07;102270.23;1813787;79;20972;-76
2021/12/18 11:27:39;;;;;;;6.03;3.58;;;;;;;4.55;84.97;102263.79;1813686;79;20964;-76
2021/12/18 11:30:11;;;;;;;4.57;3.00;;;;;;;4.55;85.12;102257.30;1813768;79;21458;-76
2021/12/18 11:32:42;;;;;;;4.50;3.70;;;;;;;4.57;85.08;102253.41;1813411;79;22359;-76
2021/12/18 11:35:17;;;;;;;3.33;2.77;;;;;;;4.56;85.08;102246.05;1813887;79;27664;-76
2021/12/18 11:37:55;;;;;;;3.80;2.53;;;;;;;4.59;85.10;102232.25;1813399;79;21510;-77
2021/12/18 11:40:31;;;;;;;3.77;2.50;;;;;;;4.62;84.96;102238.36;1813749;79;21004;-77
2021/12/18 11:42:58;;;;;;;5.60;2.80;;;;;;;4.62;84.94;102224.50;1813499;79;21501;-77
2021/12/18 11:45:35;;;;;;;3.10;2.27;;;;;;;4.65;84.98;102233.21;1813366;79;21319;-77
2021/12/18 11:48:04;;;;;;;3.27;2.10;;;;;;;4.66;84.93;102229.78;1813588;79;21493;-77
2021/12/18 11:50:38;;;;;;;4.17;3.08;;;;;;;4.67;84.95;102224.16;1813760;79;21658;-77
2021/12/18 11:53:12;;;;;;;5.97;3.60;;;;;;;4.69;85.03;102222.47;1813341;79;20973;-77
2021/12/18 11:55:53;;;;;;;7.13;4.20;;;;;;;4.68;84.98;102219.00;1813831;79;20969;-76
2021/12/18 11:58:26;;;;;;;6.13;3.60;;;;;;;4.67;85.12;102209.44;1813523;79;20988;-80
2021/12/18 12:01:03;;;;;;;5.37;3.00;;;;;;;4.70;85.10;102208.19;1813739;79;22010;-78
2021/12/18 12:03:43;;;;;;;4.73;2.93;;;;;;;4.73;84.96;102206.50;1813457;79;21548;-75
2021/12/18 12:06:33;;;;;;;5.92;2.80;;;;;;;4.74;84.87;102199.14;1813429;79;21000;-75
2021/12/18 12:09:27;;;;;;;;;;;;;;;4.79;84.94;102205.29;1816117;79;21470;-75
2021/12/18 12:12:04;;;;;;;3.97;2.40;;;;;;;4.82;84.86;102194.94;1815672;78;20518;-74
2021/12/18 12:14:34;;;;;;;4.90;2.83;;;;;;;4.84;84.94;102196.72;1821530;78;21241;-74
2021/12/18 12:17:21;;;;;;;4.17;2.70;;;;;;;4.84;84.92;102190.66;1822014;78;21050;-74
2021/12/18 12:20:00;;;;;;;5.70;3.70;;;;;;;4.87;85.06;102191.99;1821346;78;21004;-76
2021/12/18 12:22:38;;;;;;;4.43;3.17;;;;;;;4.86;84.92;102189.83;1822048;78;21493;-74
2021/12/18 12:25:08;;;;;;;6.40;2.80;;;;;;;4.87;84.90;102195.89;1821645;78;20961;-77